sensor_id;sensor_type;location;lat;lon;timestamp;pressure;altitude;pressure_sealevel;temperature;humidity
14966;BME280;7577;45.226;5.798;2022-09-06T00:01:58;98227.03;;;21.75;75.60
14966;BME280;7577;45.226;5.798;2022-09-06T00:04:28;98230.16;;;21.74;76.07
14966;BME280;7577;45.226;5.798;2022-09-06T00:06:58;98227.44;;;21.62;77.45
14966;BME280;7577;45.226;5.798;2022-09-06T00:09:28;98227.38;;;21.80;77.29
14966;BME280;7577;45.226;5.798;2022-09-06T00:11:58;98238.11;;;21.81;75.38
14966;BME280;7577;45.226;5.798;2022-09-06T00:14:28;98236.73;;;21.75;76.96
14966;BME280;7577;45.226;5.798;2022-09-06T00:16:58;98235.27;;;21.66;77.54
14966;BME280;7577;45.226;5.798;2022-09-06T00:19:29;98236.78;;;21.69;77.41
14966;BME280;7577;45.226;5.798;2022-09-06T00:22:00;98234.56;;;21.75;77.67
14966;BME280;7577;45.226;5.798;2022-09-06T00:24:30;98232.81;;;21.43;79.34
14966;BME280;7577;45.226;5.798;2022-09-06T00:27:00;98229.95;;;21.39;79.60
14966;BME280;7577;45.226;5.798;2022-09-06T00:32:18;98228.36;;;21.60;79.47
14966;BME280;7577;45.226;5.798;2022-09-06T00:34:48;98221.34;;;21.56;78.57
14966;BME280;7577;45.226;5.798;2022-09-06T00:37:18;98225.11;;;21.64;79.34
14966;BME280;7577;45.226;5.798;2022-09-06T00:39:48;98226.52;;;21.70;78.66
14966;BME280;7577;45.226;5.798;2022-09-06T00:42:18;98227.79;;;21.60;78.27
14966;BME280;7577;45.226;5.798;2022-09-06T00:47:29;98220.59;;;21.65;79.52
14966;BME280;7577;45.226;5.798;2022-09-06T00:50:00;98223.59;;;21.45;80.23
14966;BME280;7577;45.226;5.798;2022-09-06T00:52:32;98220.95;;;21.36;81.60
14966;BME280;7577;45.226;5.798;2022-09-06T00:55:04;98220.03;;;21.38;82.14
14966;BME280;7577;45.226;5.798;2022-09-06T00:57:36;98223.50;;;21.41;80.89
14966;BME280;7577;45.226;5.798;2022-09-06T01:00:09;98228.03;;;21.28;82.30
14966;BME280;7577;45.226;5.798;2022-09-06T01:02:39;98231.46;;;21.37;82.19
14966;BME280;7577;45.226;5.798;2022-09-06T01:05:10;98223.56;;;21.17;82.61
14966;BME280;7577;45.226;5.798;2022-09-06T01:08:01;98217.51;;;20.94;81.68
14966;BME280;7577;45.226;5.798;2022-09-06T01:13:32;98215.98;;;21.08;83.00
14966;BME280;7577;45.226;5.798;2022-09-06T01:16:09;98214.27;;;20.98;83.62
14966;BME280;7577;45.226;5.798;2022-09-06T01:19:13;98213.90;;;21.05;83.43
14966;BME280;7577;45.226;5.798;2022-09-06T01:24:45;98212.83;;;21.16;81.12
14966;BME280;7577;45.226;5.798;2022-09-06T01:27:45;98215.73;;;21.13;81.79
14966;BME280;7577;45.226;5.798;2022-09-06T01:30:17;98221.64;;;21.06;82.50
14966;BME280;7577;45.226;5.798;2022-09-06T01:32:52;98231.75;;;21.20;81.72
14966;BME280;7577;45.226;5.798;2022-09-06T01:38:15;98230.39;;;21.14;81.29
14966;BME280;7577;45.226;5.798;2022-09-06T01:43:30;98232.94;;;21.07;81.60
14966;BME280;7577;45.226;5.798;2022-09-06T01:46:04;98240.47;;;20.70;83.53
14966;BME280;7577;45.226;5.798;2022-09-06T01:48:42;98235.42;;;20.54;84.41
14966;BME280;7577;45.226;5.798;2022-09-06T01:51:17;98229.88;;;20.60;84.90
14966;BME280;7577;45.226;5.798;2022-09-06T01:54:04;98232.06;;;20.67;84.71
14966;BME280;7577;45.226;5.798;2022-09-06T01:56:38;98229.16;;;20.81;83.22
14966;BME280;7577;45.226;5.798;2022-09-06T01:59:22;98230.31;;;20.92;81.84
14966;BME280;7577;45.226;5.798;2022-09-06T02:01:57;98233.17;;;20.90;83.35
14966;BME280;7577;45.226;5.798;2022-09-06T02:04:29;98220.28;;;20.94;83.08
14966;BME280;7577;45.226;5.798;2022-09-06T02:07:02;98226.41;;;20.93;83.92
14966;BME280;7577;45.226;5.798;2022-09-06T02:09:37;98225.72;;;20.90;83.97
14966;BME280;7577;45.226;5.798;2022-09-06T02:12:10;98223.97;;;20.80;83.62
14966;BME280;7577;45.226;5.798;2022-09-06T02:14:44;98214.64;;;20.90;83.52
14966;BME280;7577;45.226;5.798;2022-09-06T02:17:17;98218.77;;;20.96;81.08
14966;BME280;7577;45.226;5.798;2022-09-06T02:19:50;98218.42;;;20.98;80.44
14966;BME280;7577;45.226;5.798;2022-09-06T02:22:24;98224.63;;;21.07;80.39
14966;BME280;7577;45.226;5.798;2022-09-06T02:24:56;98225.95;;;20.67;83.83
14966;BME280;7577;45.226;5.798;2022-09-06T02:30:15;98227.44;;;20.83;83.85
14966;BME280;7577;45.226;5.798;2022-09-06T02:32:48;98230.41;;;20.90;82.77
14966;BME280;7577;45.226;5.798;2022-09-06T02:37:59;98230.98;;;21.01;82.58
14966;BME280;7577;45.226;5.798;2022-09-06T02:40:30;98233.09;;;20.98;83.14
14966;BME280;7577;45.226;5.798;2022-09-06T02:45:49;98231.68;;;21.04;83.04
14966;BME280;7577;45.226;5.798;2022-09-06T02:48:19;98231.78;;;21.08;83.45
14966;BME280;7577;45.226;5.798;2022-09-06T02:50:49;98236.72;;;21.14;83.64
14966;BME280;7577;45.226;5.798;2022-09-06T02:53:21;98238.36;;;21.15;82.62
14966;BME280;7577;45.226;5.798;2022-09-06T02:55:51;98237.86;;;21.19;84.06
14966;BME280;7577;45.226;5.798;2022-09-06T03:01:02;98226.95;;;21.05;83.49
14966;BME280;7577;45.226;5.798;2022-09-06T03:03:34;98232.44;;;21.17;84.83
14966;BME280;7577;45.226;5.798;2022-09-06T03:08:49;98225.20;;;21.12;82.84
14966;BME280;7577;45.226;5.798;2022-09-06T03:11:19;98230.61;;;21.15;84.13
14966;BME280;7577;45.226;5.798;2022-09-06T03:13:49;98228.51;;;21.24;81.59
14966;BME280;7577;45.226;5.798;2022-09-06T03:16:20;98220.42;;;21.25;82.53
14966;BME280;7577;45.226;5.798;2022-09-06T03:18:50;98223.31;;;21.28;83.92
14966;BME280;7577;45.226;5.798;2022-09-06T03:21:20;98227.09;;;21.36;83.21
14966;BME280;7577;45.226;5.798;2022-09-06T03:23:50;98232.16;;;21.34;84.13
14966;BME280;7577;45.226;5.798;2022-09-06T03:29:02;98227.91;;;21.30;82.42
14966;BME280;7577;45.226;5.798;2022-09-06T03:31:32;98225.83;;;21.27;82.24
14966;BME280;7577;45.226;5.798;2022-09-06T03:34:02;98230.59;;;21.27;83.80
14966;BME280;7577;45.226;5.798;2022-09-06T03:39:16;98231.31;;;21.18;85.42
14966;BME280;7577;45.226;5.798;2022-09-06T03:44:32;98233.58;;;21.28;85.42
14966;BME280;7577;45.226;5.798;2022-09-06T03:47:03;98236.25;;;21.24;85.42
14966;BME280;7577;45.226;5.798;2022-09-06T03:49:33;98241.41;;;21.26;84.89
14966;BME280;7577;45.226;5.798;2022-09-06T03:52:04;98239.80;;;21.31;85.59
14966;BME280;7577;45.226;5.798;2022-09-06T03:54:34;98236.38;;;21.22;85.63
14966;BME280;7577;45.226;5.798;2022-09-06T03:57:04;98236.78;;;21.30;85.93
14966;BME280;7577;45.226;5.798;2022-09-06T03:59:34;98239.21;;;21.31;86.75
14966;BME280;7577;45.226;5.798;2022-09-06T04:02:05;98243.59;;;21.32;87.84
14966;BME280;7577;45.226;5.798;2022-09-06T04:07:19;98238.70;;;21.08;86.87
14966;BME280;7577;45.226;5.798;2022-09-06T04:09:50;98233.95;;;21.14;87.39
14966;BME280;7577;45.226;5.798;2022-09-06T04:12:20;98231.30;;;21.12;88.00
14966;BME280;7577;45.226;5.798;2022-09-06T04:14:50;98239.87;;;20.95;89.10
14966;BME280;7577;45.226;5.798;2022-09-06T04:20:01;98232.17;;;20.40;92.70
14966;BME280;7577;45.226;5.798;2022-09-06T04:22:32;98234.96;;;20.58;91.04
14966;BME280;7577;45.226;5.798;2022-09-06T04:25:04;98236.99;;;20.79;90.07
14966;BME280;7577;45.226;5.798;2022-09-06T04:27:35;98233.77;;;20.89;89.36
14966;BME280;7577;45.226;5.798;2022-09-06T04:30:08;98219.72;;;20.94;87.86
14966;BME280;7577;45.226;5.798;2022-09-06T04:32:38;98219.69;;;21.00;87.92
14966;BME280;7577;45.226;5.798;2022-09-06T04:35:09;98215.75;;;21.01;86.69
14966;BME280;7577;45.226;5.798;2022-09-06T04:37:39;98213.83;;;20.96;85.72
14966;BME280;7577;45.226;5.798;2022-09-06T04:40:11;98208.72;;;20.86;85.62
14966;BME280;7577;45.226;5.798;2022-09-06T04:42:41;98211.28;;;20.91;86.23
14966;BME280;7577;45.226;5.798;2022-09-06T04:45:11;98211.19;;;20.93;87.82
14966;BME280;7577;45.226;5.798;2022-09-06T04:47:42;98212.55;;;20.81;89.17
14966;BME280;7577;45.226;5.798;2022-09-06T04:50:13;98211.30;;;20.79;88.12
14966;BME280;7577;45.226;5.798;2022-09-06T04:52:44;98216.13;;;20.76;88.17
14966;BME280;7577;45.226;5.798;2022-09-06T04:55:15;98219.83;;;20.68;87.79
14966;BME280;7577;45.226;5.798;2022-09-06T04:57:45;98223.09;;;20.52;89.46
14966;BME280;7577;45.226;5.798;2022-09-06T05:00:21;98218.56;;;20.53;90.05
14966;BME280;7577;45.226;5.798;2022-09-06T05:03:09;98225.27;;;20.46;89.63
14966;BME280;7577;45.226;5.798;2022-09-06T05:05:49;98220.52;;;20.11;91.55
14966;BME280;7577;45.226;5.798;2022-09-06T05:08:25;98217.54;;;20.28;90.97
14966;BME280;7577;45.226;5.798;2022-09-06T05:13:43;98211.77;;;20.21;91.63
14966;BME280;7577;45.226;5.798;2022-09-06T05:16:17;98223.63;;;20.09;92.09
14966;BME280;7577;45.226;5.798;2022-09-06T05:18:50;98222.58;;;20.08;91.93
14966;BME280;7577;45.226;5.798;2022-09-06T05:21:20;98226.19;;;20.20;91.33
14966;BME280;7577;45.226;5.798;2022-09-06T05:23:53;98230.44;;;20.24;91.38
14966;BME280;7577;45.226;5.798;2022-09-06T05:26:23;98233.69;;;20.26;91.38
14966;BME280;7577;45.226;5.798;2022-09-06T05:28:59;98238.41;;;20.43;89.88
14966;BME280;7577;45.226;5.798;2022-09-06T05:31:36;98245.42;;;20.29;91.28
14966;BME280;7577;45.226;5.798;2022-09-06T05:37:00;98244.53;;;20.43;91.76
14966;BME280;7577;45.226;5.798;2022-09-06T05:39:30;98252.00;;;20.24;92.58
14966;BME280;7577;45.226;5.798;2022-09-06T05:44:49;98241.39;;;20.80;89.27
14966;BME280;7577;45.226;5.798;2022-09-06T05:47:22;98245.20;;;20.94;87.51
14966;BME280;7577;45.226;5.798;2022-09-06T05:49:54;98257.17;;;21.10;88.16
14966;BME280;7577;45.226;5.798;2022-09-06T05:52:24;98248.81;;;21.28;86.77
14966;BME280;7577;45.226;5.798;2022-09-06T05:54:54;98251.47;;;22.07;79.32
14966;BME280;7577;45.226;5.798;2022-09-06T05:57:25;98253.45;;;23.19;74.90
14966;BME280;7577;45.226;5.798;2022-09-06T06:02:45;98253.91;;;25.26;65.35
14966;BME280;7577;45.226;5.798;2022-09-06T06:08:13;98257.67;;;25.24;61.54
14966;BME280;7577;45.226;5.798;2022-09-06T06:10:39;98255.06;;;24.95;62.67
14966;BME280;7577;45.226;5.798;2022-09-06T06:13:10;98256.88;;;24.49;64.20
14966;BME280;7577;45.226;5.798;2022-09-06T06:15:41;98256.26;;;24.04;66.19
14966;BME280;7577;45.226;5.798;2022-09-06T06:18:13;98257.23;;;23.36;69.70
14966;BME280;7577;45.226;5.798;2022-09-06T06:20:43;98260.94;;;23.34;69.01
14966;BME280;7577;45.226;5.798;2022-09-06T06:23:22;98248.44;;;23.34;72.21
14966;BME280;7577;45.226;5.798;2022-09-06T06:26:05;98256.58;;;23.42;73.68
14966;BME280;7577;45.226;5.798;2022-09-06T06:28:44;98255.97;;;23.43;72.80
14966;BME280;7577;45.226;5.798;2022-09-06T06:33:59;98255.97;;;25.58;66.36
14966;BME280;7577;45.226;5.798;2022-09-06T06:36:32;98255.70;;;27.10;59.57
14966;BME280;7577;45.226;5.798;2022-09-06T06:41:44;98256.14;;;30.81;46.02
14966;BME280;7577;45.226;5.798;2022-09-06T06:47:02;98258.69;;;30.87;45.03
14966;BME280;7577;45.226;5.798;2022-09-06T06:52:17;98258.70;;;31.87;42.45
14966;BME280;7577;45.226;5.798;2022-09-06T06:54:49;98267.55;;;32.87;40.02
14966;BME280;7577;45.226;5.798;2022-09-06T06:57:20;98260.17;;;33.04;39.45
14966;BME280;7577;45.226;5.798;2022-09-06T06:59:50;98254.61;;;33.86;36.99
14966;BME280;7577;45.226;5.798;2022-09-06T07:02:21;98239.89;;;34.66;35.90
14966;BME280;7577;45.226;5.798;2022-09-06T07:04:51;98246.28;;;35.10;34.27
14966;BME280;7577;45.226;5.798;2022-09-06T07:07:22;98242.28;;;35.31;33.53
14966;BME280;7577;45.226;5.798;2022-09-06T07:09:53;98234.13;;;34.37;35.06
14966;BME280;7577;45.226;5.798;2022-09-06T07:12:23;98230.97;;;35.15;33.84
14966;BME280;7577;45.226;5.798;2022-09-06T07:14:53;98222.92;;;35.87;31.97
14966;BME280;7577;45.226;5.798;2022-09-06T07:17:24;98213.31;;;36.42;31.69
14966;BME280;7577;45.226;5.798;2022-09-06T07:19:54;98213.70;;;36.74;31.47
14966;BME280;7577;45.226;5.798;2022-09-06T07:22:24;98219.70;;;37.18;30.88
14966;BME280;7577;45.226;5.798;2022-09-06T07:24:55;98219.17;;;37.44;29.95
14966;BME280;7577;45.226;5.798;2022-09-06T07:30:11;98215.59;;;38.13;29.12
14966;BME280;7577;45.226;5.798;2022-09-06T07:32:43;98211.36;;;38.48;28.34
14966;BME280;7577;45.226;5.798;2022-09-06T07:35:13;98211.27;;;38.65;27.98
14966;BME280;7577;45.226;5.798;2022-09-06T07:37:50;98210.31;;;38.63;28.19
14966;BME280;7577;45.226;5.798;2022-09-06T07:40:21;98214.80;;;38.78;28.15
14966;BME280;7577;45.226;5.798;2022-09-06T07:45:32;98214.71;;;38.95;27.57
14966;BME280;7577;45.226;5.798;2022-09-06T07:50:47;98218.58;;;38.71;26.94
14966;BME280;7577;45.226;5.798;2022-09-06T07:53:18;98226.36;;;38.88;27.35
14966;BME280;7577;45.226;5.798;2022-09-06T07:55:49;98220.28;;;37.85;28.09
14966;BME280;7577;45.226;5.798;2022-09-06T07:58:19;98224.80;;;37.40;28.61
14966;BME280;7577;45.226;5.798;2022-09-06T08:00:50;98209.16;;;36.26;30.77
14966;BME280;7577;45.226;5.798;2022-09-06T08:03:20;98207.34;;;36.70;30.07
14966;BME280;7577;45.226;5.798;2022-09-06T08:05:51;98207.59;;;36.50;29.27
14966;BME280;7577;45.226;5.798;2022-09-06T08:08:22;98212.09;;;35.33;31.41
14966;BME280;7577;45.226;5.798;2022-09-06T08:10:54;98217.34;;;36.24;30.92
14966;BME280;7577;45.226;5.798;2022-09-06T08:16:10;98223.47;;;34.85;32.97
14966;BME280;7577;45.226;5.798;2022-09-06T08:18:41;98218.66;;;34.58;33.19
14966;BME280;7577;45.226;5.798;2022-09-06T08:21:13;98216.28;;;34.72;33.87
14966;BME280;7577;45.226;5.798;2022-09-06T08:23:47;98216.70;;;34.31;34.45
14966;BME280;7577;45.226;5.798;2022-09-06T08:26:19;98218.27;;;34.04;35.36
14966;BME280;7577;45.226;5.798;2022-09-06T08:28:53;98221.04;;;34.16;35.27
14966;BME280;7577;45.226;5.798;2022-09-06T08:31:25;98216.01;;;33.68;35.53
14966;BME280;7577;45.226;5.798;2022-09-06T08:36:54;98224.84;;;32.85;35.89
14966;BME280;7577;45.226;5.798;2022-09-06T08:39:27;98229.59;;;33.22;36.13
14966;BME280;7577;45.226;5.798;2022-09-06T08:45:20;98223.45;;;31.16;37.46
14966;BME280;7577;45.226;5.798;2022-09-06T08:47:54;98219.69;;;30.13;39.85
14966;BME280;7577;45.226;5.798;2022-09-06T08:50:37;98220.50;;;30.06;40.77
14966;BME280;7577;45.226;5.798;2022-09-06T08:53:13;98215.88;;;29.72;40.64
14966;BME280;7577;45.226;5.798;2022-09-06T08:55:57;98209.28;;;28.99;42.90
14966;BME280;7577;45.226;5.798;2022-09-06T08:58:44;98199.66;;;29.68;42.65
14966;BME280;7577;45.226;5.798;2022-09-06T09:01:17;98199.58;;;30.43;42.40
14966;BME280;7577;45.226;5.798;2022-09-06T09:03:50;98195.00;;;31.29;39.73
14966;BME280;7577;45.226;5.798;2022-09-06T09:06:24;98196.22;;;31.28;39.45
14966;BME280;7577;45.226;5.798;2022-09-06T09:08:58;98197.36;;;30.72;40.53
14966;BME280;7577;45.226;5.798;2022-09-06T09:11:37;98185.83;;;31.40;40.83
14966;BME280;7577;45.226;5.798;2022-09-06T09:14:17;98179.23;;;30.54;40.48
14966;BME280;7577;45.226;5.798;2022-09-06T09:19:32;98175.77;;;30.04;41.19
14966;BME280;7577;45.226;5.798;2022-09-06T09:22:05;98173.77;;;30.01;41.07
14966;BME280;7577;45.226;5.798;2022-09-06T09:25:19;98176.00;;;30.56;40.86
14966;BME280;7577;45.226;5.798;2022-09-06T09:27:56;98169.71;;;30.09;42.01
14966;BME280;7577;45.226;5.798;2022-09-06T09:33:34;98176.59;;;29.65;42.91
14966;BME280;7577;45.226;5.798;2022-09-06T09:36:09;98175.54;;;29.20;43.42
14966;BME280;7577;45.226;5.798;2022-09-06T09:41:29;98163.18;;;28.02;45.55
14966;BME280;7577;45.226;5.798;2022-09-06T09:44:01;98162.35;;;27.80;46.18
14966;BME280;7577;45.226;5.798;2022-09-06T09:49:27;98153.27;;;27.15;49.46
14966;BME280;7577;45.226;5.798;2022-09-06T09:54:49;98144.24;;;27.05;48.51
14966;BME280;7577;45.226;5.798;2022-09-06T09:57:31;98144.42;;;27.40;50.14
14966;BME280;7577;45.226;5.798;2022-09-06T10:00:07;98140.07;;;27.53;49.27
14966;BME280;7577;45.226;5.798;2022-09-06T10:02:44;98138.09;;;27.57;48.58
14966;BME280;7577;45.226;5.798;2022-09-06T10:05:21;98138.70;;;27.71;48.76
14966;BME280;7577;45.226;5.798;2022-09-06T10:07:54;98125.39;;;27.29;48.29
14966;BME280;7577;45.226;5.798;2022-09-06T10:10:26;98125.39;;;27.29;48.29
14966;BME280;7577;45.226;5.798;2022-09-06T10:15:52;98116.59;;;28.00;51.79
14966;BME280;7577;45.226;5.798;2022-09-06T10:18:30;98102.19;;;28.08;49.09
14966;BME280;7577;45.226;5.798;2022-09-06T10:21:02;98112.98;;;28.10;49.03
14966;BME280;7577;45.226;5.798;2022-09-06T10:23:43;98104.59;;;28.17;48.86
14966;BME280;7577;45.226;5.798;2022-09-06T10:26:15;98100.80;;;28.05;47.67
14966;BME280;7577;45.226;5.798;2022-09-06T10:28:46;98091.17;;;27.81;47.38
14966;BME280;7577;45.226;5.798;2022-09-06T10:31:50;98085.58;;;27.81;48.97
14966;BME280;7577;45.226;5.798;2022-09-06T10:37:43;98062.98;;;28.05;47.28
14966;BME280;7577;45.226;5.798;2022-09-06T10:40:21;98059.95;;;27.72;47.42
14966;BME280;7577;45.226;5.798;2022-09-06T10:45:43;98052.34;;;27.80;46.56
14966;BME280;7577;45.226;5.798;2022-09-06T10:48:18;98045.94;;;27.44;46.68
14966;BME280;7577;45.226;5.798;2022-09-06T10:50:53;98043.76;;;27.65;47.20
14966;BME280;7577;45.226;5.798;2022-09-06T10:53:35;98027.16;;;27.69;46.37
14966;BME280;7577;45.226;5.798;2022-09-06T10:56:10;98027.16;;;27.69;46.37
14966;BME280;7577;45.226;5.798;2022-09-06T10:58:47;98025.38;;;27.78;45.83
14966;BME280;7577;45.226;5.798;2022-09-06T11:01:29;98019.99;;;27.93;46.59
14966;BME280;7577;45.226;5.798;2022-09-06T11:04:00;98009.41;;;27.93;48.46
14966;BME280;7577;45.226;5.798;2022-09-06T11:06:33;98006.17;;;27.76;48.16
14966;BME280;7577;45.226;5.798;2022-09-06T11:09:10;98001.80;;;28.00;48.81
14966;BME280;7577;45.226;5.798;2022-09-06T11:11:42;97993.75;;;28.30;47.28
14966;BME280;7577;45.226;5.798;2022-09-06T11:14:15;97988.52;;;28.50;47.91
14966;BME280;7577;45.226;5.798;2022-09-06T11:16:49;97982.30;;;28.50;47.32
14966;BME280;7577;45.226;5.798;2022-09-06T11:19:22;97968.14;;;28.25;45.80
14966;BME280;7577;45.226;5.798;2022-09-06T11:30:34;97946.80;;;28.66;47.99
14966;BME280;7577;45.226;5.798;2022-09-06T11:33:16;97947.47;;;28.55;45.49
14966;BME280;7577;45.226;5.798;2022-09-06T11:35:44;97950.33;;;28.41;44.58
14966;BME280;7577;45.226;5.798;2022-09-06T11:38:23;97934.83;;;28.58;46.82
14966;BME280;7577;45.226;5.798;2022-09-06T11:40:59;97931.98;;;28.69;47.37
14966;BME280;7577;45.226;5.798;2022-09-06T11:46:57;97919.91;;;28.79;48.04
14966;BME280;7577;45.226;5.798;2022-09-06T11:49:38;97926.48;;;28.87;46.56
14966;BME280;7577;45.226;5.798;2022-09-06T11:55:36;97920.66;;;28.90;48.60
14966;BME280;7577;45.226;5.798;2022-09-06T12:04:14;97923.30;;;28.82;47.92
14966;BME280;7577;45.226;5.798;2022-09-06T12:07:06;97929.91;;;28.83;49.43
14966;BME280;7577;45.226;5.798;2022-09-06T12:09:38;97931.06;;;28.89;49.43
14966;BME280;7577;45.226;5.798;2022-09-06T12:12:11;97928.23;;;29.00;47.95
14966;BME280;7577;45.226;5.798;2022-09-06T12:14:43;97924.98;;;29.05;46.32
14966;BME280;7577;45.226;5.798;2022-09-06T12:17:22;97924.77;;;29.07;46.88
14966;BME280;7577;45.226;5.798;2022-09-06T12:19:55;97921.78;;;29.06;49.41
14966;BME280;7577;45.226;5.798;2022-09-06T12:22:51;97911.27;;;29.21;49.96
14966;BME280;7577;45.226;5.798;2022-09-06T12:25:56;97914.06;;;29.21;49.11
14966;BME280;7577;45.226;5.798;2022-09-06T12:28:42;97909.86;;;29.21;47.64
14966;BME280;7577;45.226;5.798;2022-09-06T12:31:26;97909.27;;;29.21;48.29
14966;BME280;7577;45.226;5.798;2022-09-06T12:36:56;97910.63;;;29.25;46.72
14966;BME280;7577;45.226;5.798;2022-09-06T12:39:28;97904.44;;;29.22;49.71
14966;BME280;7577;45.226;5.798;2022-09-06T12:42:00;97909.22;;;28.99;47.91
14966;BME280;7577;45.226;5.798;2022-09-06T12:44:35;97904.51;;;29.11;46.30
14966;BME280;7577;45.226;5.798;2022-09-06T12:50:06;97895.02;;;29.20;46.40
14966;BME280;7577;45.226;5.798;2022-09-06T12:52:45;97889.30;;;29.09;46.07
14966;BME280;7577;45.226;5.798;2022-09-06T12:55:19;97870.94;;;28.97;46.54
14966;BME280;7577;45.226;5.798;2022-09-06T12:57:53;97870.48;;;29.06;46.66
14966;BME280;7577;45.226;5.798;2022-09-06T13:00:34;97873.14;;;29.01;45.85
14966;BME280;7577;45.226;5.798;2022-09-06T13:03:07;97875.95;;;28.94;46.21
14966;BME280;7577;45.226;5.798;2022-09-06T13:05:44;97869.16;;;28.92;45.39
14966;BME280;7577;45.226;5.798;2022-09-06T13:08:17;97863.33;;;28.98;46.78
14966;BME280;7577;45.226;5.798;2022-09-06T13:10:48;97860.81;;;29.14;48.93
14966;BME280;7577;45.226;5.798;2022-09-06T13:13:21;97853.85;;;29.32;49.09
14966;BME280;7577;45.226;5.798;2022-09-06T13:15:54;97843.13;;;29.42;49.03
14966;BME280;7577;45.226;5.798;2022-09-06T13:21:11;97838.27;;;29.50;47.38
14966;BME280;7577;45.226;5.798;2022-09-06T13:23:48;97839.87;;;29.29;46.13
14966;BME280;7577;45.226;5.798;2022-09-06T13:26:33;97843.30;;;29.25;48.42
14966;BME280;7577;45.226;5.798;2022-09-06T13:29:12;97830.55;;;29.39;47.20
14966;BME280;7577;45.226;5.798;2022-09-06T13:31:47;97832.36;;;29.37;46.21
14966;BME280;7577;45.226;5.798;2022-09-06T13:37:05;97830.59;;;29.54;50.24
14966;BME280;7577;45.226;5.798;2022-09-06T13:39:38;97843.77;;;29.64;46.34
14966;BME280;7577;45.226;5.798;2022-09-06T13:42:10;97844.14;;;29.66;45.44
14966;BME280;7577;45.226;5.798;2022-09-06T13:44:41;97845.25;;;29.75;46.81
14966;BME280;7577;45.226;5.798;2022-09-06T13:49:55;97833.67;;;29.88;47.78
14966;BME280;7577;45.226;5.798;2022-09-06T13:52:25;97824.78;;;29.93;45.83
14966;BME280;7577;45.226;5.798;2022-09-06T13:54:55;97822.31;;;29.99;47.27
14966;BME280;7577;45.226;5.798;2022-09-06T13:57:27;97819.88;;;30.01;45.59
14966;BME280;7577;45.226;5.798;2022-09-06T13:59:57;97809.34;;;29.93;46.81
14966;BME280;7577;45.226;5.798;2022-09-06T14:02:27;97801.22;;;29.84;46.08
14966;BME280;7577;45.226;5.798;2022-09-06T14:07:38;97797.77;;;29.88;48.68
14966;BME280;7577;45.226;5.798;2022-09-06T14:10:09;97791.27;;;29.94;47.62
14966;BME280;7577;45.226;5.798;2022-09-06T14:12:40;97788.20;;;30.00;49.41
14966;BME280;7577;45.226;5.798;2022-09-06T14:15:10;97785.67;;;30.09;46.68
14966;BME280;7577;45.226;5.798;2022-09-06T14:17:41;97783.83;;;30.11;46.44
14966;BME280;7577;45.226;5.798;2022-09-06T14:20:11;97777.02;;;30.12;47.46
14966;BME280;7577;45.226;5.798;2022-09-06T14:22:41;97776.39;;;30.12;44.59
14966;BME280;7577;45.226;5.798;2022-09-06T14:25:12;97777.59;;;30.15;46.04
14966;BME280;7577;45.226;5.798;2022-09-06T14:27:43;97778.66;;;30.09;46.08
14966;BME280;7577;45.226;5.798;2022-09-06T14:30:15;97779.82;;;30.12;47.15
14966;BME280;7577;45.226;5.798;2022-09-06T14:32:45;97785.93;;;30.22;48.21
14966;BME280;7577;45.226;5.798;2022-09-06T14:37:59;97804.80;;;30.36;47.20
14966;BME280;7577;45.226;5.798;2022-09-06T14:43:11;97794.58;;;30.34;46.71
14966;BME280;7577;45.226;5.798;2022-09-06T14:45:41;97785.19;;;30.33;45.54
14966;BME280;7577;45.226;5.798;2022-09-06T14:48:11;97793.74;;;30.37;48.06
14966;BME280;7577;45.226;5.798;2022-09-06T14:50:43;97790.52;;;30.39;45.82
14966;BME280;7577;45.226;5.798;2022-09-06T14:53:13;97791.80;;;30.46;44.18
14966;BME280;7577;45.226;5.798;2022-09-06T14:55:44;97800.68;;;30.44;45.37
14966;BME280;7577;45.226;5.798;2022-09-06T14:58:15;97801.43;;;30.48;45.62
14966;BME280;7577;45.226;5.798;2022-09-06T15:00:45;97805.53;;;30.55;47.23
14966;BME280;7577;45.226;5.798;2022-09-06T15:03:17;97812.08;;;30.60;45.88
14966;BME280;7577;45.226;5.798;2022-09-06T15:05:48;97803.52;;;30.56;45.39
14966;BME280;7577;45.226;5.798;2022-09-06T15:08:19;97807.17;;;30.53;47.45
14966;BME280;7577;45.226;5.798;2022-09-06T15:10:54;97805.61;;;30.63;46.17
14966;BME280;7577;45.226;5.798;2022-09-06T15:16:11;97807.97;;;30.38;47.31
14966;BME280;7577;45.226;5.798;2022-09-06T15:21:25;97807.11;;;30.11;45.68
14966;BME280;7577;45.226;5.798;2022-09-06T15:23:55;97820.29;;;29.99;45.99
14966;BME280;7577;45.226;5.798;2022-09-06T15:26:25;97814.66;;;29.84;46.50
14966;BME280;7577;45.226;5.798;2022-09-06T15:28:56;97815.72;;;29.79;47.36
14966;BME280;7577;45.226;5.798;2022-09-06T15:31:26;97818.23;;;29.70;48.05
14966;BME280;7577;45.226;5.798;2022-09-06T15:36:36;97815.06;;;29.68;46.89
14966;BME280;7577;45.226;5.798;2022-09-06T15:39:07;97811.38;;;29.52;47.50
14966;BME280;7577;45.226;5.798;2022-09-06T15:44:25;97804.63;;;29.24;45.35
14966;BME280;7577;45.226;5.798;2022-09-06T15:46:56;97800.91;;;29.16;45.76
14966;BME280;7577;45.226;5.798;2022-09-06T15:49:28;97796.94;;;29.10;46.19
14966;BME280;7577;45.226;5.798;2022-09-06T15:52:01;97792.77;;;29.06;46.15
14966;BME280;7577;45.226;5.798;2022-09-06T15:54:33;97788.81;;;28.97;45.22
14966;BME280;7577;45.226;5.798;2022-09-06T15:57:20;97796.63;;;28.97;45.07
14966;BME280;7577;45.226;5.798;2022-09-06T16:02:32;97803.45;;;29.00;44.69
14966;BME280;7577;45.226;5.798;2022-09-06T16:05:03;97809.64;;;29.03;45.11
14966;BME280;7577;45.226;5.798;2022-09-06T16:10:17;97815.61;;;29.08;45.61
14966;BME280;7577;45.226;5.798;2022-09-06T16:12:47;97816.11;;;28.93;46.07
14966;BME280;7577;45.226;5.798;2022-09-06T16:15:19;97815.89;;;28.92;45.55
14966;BME280;7577;45.226;5.798;2022-09-06T16:20:30;97815.66;;;29.01;45.48
14966;BME280;7577;45.226;5.798;2022-09-06T16:23:01;97820.46;;;28.97;47.28
14966;BME280;7577;45.226;5.798;2022-09-06T16:28:30;97807.88;;;28.94;46.81
14966;BME280;7577;45.226;5.798;2022-09-06T16:31:02;97810.98;;;28.81;46.81
14966;BME280;7577;45.226;5.798;2022-09-06T16:33:38;97809.98;;;28.79;46.22
14966;BME280;7577;45.226;5.798;2022-09-06T16:36:17;97807.30;;;28.91;46.98
14966;BME280;7577;45.226;5.798;2022-09-06T16:39:00;97804.85;;;28.96;46.50